createdAt,value
2017-12-04T00:02:22.347Z,52.90
2017-12-04T00:04:51.219Z,52.70
2017-12-04T00:07:19.477Z,52.70
2017-12-04T00:09:47.722Z,53.00
2017-12-04T00:12:15.960Z,52.90
2017-12-04T00:14:44.693Z,53.80
2017-12-04T00:17:13.153Z,53.80
2017-12-04T00:19:41.403Z,53.50
2017-12-04T00:22:09.655Z,53.30
2017-12-04T00:24:37.895Z,53.30
2017-12-04T00:27:06.147Z,53.30
2017-12-04T00:29:34.419Z,53.30
2017-12-04T00:32:02.666Z,53.30
2017-12-04T00:34:30.912Z,53.20
2017-12-04T00:36:59.164Z,53.00
2017-12-04T00:39:27.635Z,53.00
2017-12-04T00:41:55.892Z,53.00
2017-12-04T00:44:24.162Z,53.30
2017-12-04T00:46:52.793Z,53.30
2017-12-04T00:49:21.037Z,53.30
2017-12-04T00:51:49.719Z,53.90
2017-12-04T00:54:18.362Z,54.30
2017-12-04T00:56:46.615Z,54.30
2017-12-04T00:59:14.860Z,53.90
2017-12-04T01:01:43.406Z,53.90
2017-12-04T01:04:11.655Z,54.50
2017-12-04T01:06:39.928Z,54.30
2017-12-04T01:09:08.184Z,55.10
2017-12-04T01:11:36.439Z,55.20
2017-12-04T01:14:05.215Z,55.50
2017-12-04T01:16:33.852Z,54.60
2017-12-04T01:19:02.092Z,54.60
2017-12-04T01:21:30.353Z,55.40
2017-12-04T01:23:59.120Z,55.40
2017-12-04T01:26:27.355Z,55.40
2017-12-04T01:28:55.629Z,55.10
2017-12-04T01:31:23.872Z,55.50
2017-12-04T01:33:52.509Z,56.00
2017-12-04T01:36:20.784Z,56.00
2017-12-04T01:38:49.029Z,55.10
2017-12-04T01:41:17.279Z,54.90
2017-12-04T01:43:45.949Z,54.20
2017-12-04T01:46:14.196Z,54.20
2017-12-04T01:48:42.444Z,53.90
2017-12-04T01:51:10.723Z,53.90
2017-12-04T01:53:38.983Z,53.80
2017-12-04T01:56:07.609Z,53.90
2017-12-04T01:58:35.886Z,53.90
2017-12-04T02:01:04.128Z,54.30
2017-12-04T02:03:32.386Z,53.90
2017-12-04T02:06:01.047Z,54.30
2017-12-04T02:08:29.289Z,54.30
2017-12-04T02:10:57.553Z,54.10
2017-12-04T02:13:25.832Z,54.20
2017-12-04T02:15:54.135Z,53.80
2017-12-04T02:18:22.376Z,53.90
2017-12-04T02:20:50.913Z,54.30
2017-12-04T02:23:19.146Z,54.20
2017-12-04T02:25:47.396Z,53.90
2017-12-04T02:28:15.656Z,53.90
2017-12-04T02:30:44.302Z,54.10
2017-12-04T02:33:12.549Z,54.10
2017-12-04T02:35:40.928Z,53.90
2017-12-04T02:38:09.168Z,53.60
2017-12-04T02:40:37.808Z,53.90
2017-12-04T02:43:06.097Z,53.90
2017-12-04T02:45:34.344Z,53.90
2017-12-04T02:48:02.861Z,54.10
2017-12-04T02:50:31.112Z,54.10
2017-12-04T02:52:59.355Z,54.20
2017-12-04T02:55:27.613Z,54.30
2017-12-04T02:57:56.304Z,54.80
2017-12-04T03:00:24.945Z,54.60
2017-12-04T03:02:53.186Z,54.60
2017-12-04T03:05:21.453Z,54.90
2017-12-04T03:07:49.695Z,55.40
2017-12-04T03:10:17.937Z,55.10
2017-12-04T03:12:46.204Z,55.10
2017-12-04T03:15:14.453Z,55.10
2017-12-04T03:17:42.691Z,54.90
2017-12-04T03:20:10.964Z,54.60
2017-12-04T03:22:39.196Z,55.10
2017-12-04T03:25:07.468Z,55.10
2017-12-04T03:27:35.716Z,55.40
2017-12-04T03:30:03.975Z,55.10
2017-12-04T03:32:32.215Z,54.90
2017-12-04T03:35:00.472Z,54.90
2017-12-04T03:37:28.716Z,54.80
2017-12-04T03:39:57.689Z,54.80
2017-12-04T03:42:25.967Z,54.80
2017-12-04T03:44:54.204Z,54.90
2017-12-04T03:47:22.459Z,54.60
2017-12-04T03:49:50.740Z,55.10
2017-12-04T03:52:18.983Z,54.80
2017-12-04T03:54:47.624Z,54.90
2017-12-04T03:57:15.886Z,54.90
2017-12-04T03:59:44.124Z,55.20
2017-12-04T04:02:12.805Z,55.10
2017-12-04T04:04:41.761Z,54.50
2017-12-04T04:07:09.998Z,54.50
2017-12-04T04:09:38.278Z,55.50
2017-12-04T04:12:06.804Z,55.10
2017-12-04T04:14:35.064Z,54.90
2017-12-04T04:17:03.309Z,54.90
2017-12-04T04:19:31.627Z,55.10
2017-12-04T04:21:59.864Z,54.60
2017-12-04T04:24:28.104Z,55.10
2017-12-04T04:26:56.753Z,54.80
2017-12-04T04:29:24.986Z,54.80
2017-12-04T04:31:53.229Z,56.10
2017-12-04T04:34:21.495Z,55.70
2017-12-04T04:36:49.740Z,56.70
2017-12-04T04:39:19.815Z,57.00
2017-12-04T04:41:49.604Z,56.40
2017-12-04T04:44:19.223Z,55.80
2017-12-04T04:46:48.091Z,57.20
2017-12-04T04:49:16.343Z,57.20
2017-12-04T04:51:44.580Z,56.30
2017-12-04T04:54:13.283Z,56.00
2017-12-04T04:56:41.526Z,56.00
2017-12-04T04:59:09.760Z,56.60
2017-12-04T05:01:38.374Z,57.30
2017-12-04T05:04:06.948Z,58.30
2017-12-04T05:06:35.177Z,59.20
2017-12-04T05:09:03.425Z,58.20
2017-12-04T05:11:32.073Z,57.90
2017-12-04T05:14:00.695Z,57.90
2017-12-04T05:16:29.384Z,58.20
2017-12-04T05:18:58.023Z,58.00
2017-12-04T05:21:26.256Z,58.00
2017-12-04T05:23:54.628Z,57.40
2017-12-04T05:26:23.265Z,57.40
2017-12-04T05:28:51.507Z,57.40
2017-12-04T05:31:19.785Z,57.00
2017-12-04T05:33:48.028Z,57.30
2017-12-04T05:36:16.665Z,57.90
2017-12-04T05:38:44.941Z,57.90
2017-12-04T05:41:13.193Z,58.00
2017-12-04T05:43:41.440Z,57.30
2017-12-04T05:46:10.148Z,56.90
2017-12-04T05:48:38.387Z,56.90
2017-12-04T05:51:06.816Z,56.60
2017-12-04T05:53:35.249Z,57.60
2017-12-04T05:56:03.470Z,57.30
2017-12-04T05:58:31.788Z,57.30
2017-12-04T06:01:00.174Z,57.90
2017-12-04T06:03:28.500Z,57.40
2017-12-04T06:05:57.025Z,56.90
2017-12-04T06:08:25.268Z,57.20
2017-12-04T06:10:53.516Z,58.30
2017-12-04T06:13:21.808Z,59.20
2017-12-04T06:15:50.045Z,58.60
2017-12-04T06:18:18.296Z,58.20
2017-12-04T06:20:46.551Z,58.20
2017-12-04T06:23:14.809Z,57.60
2017-12-04T06:25:43.069Z,57.30
2017-12-04T06:28:11.735Z,56.40
2017-12-04T06:30:40.605Z,56.00
2017-12-04T06:33:08.839Z,56.00
2017-12-04T06:35:37.084Z,55.50
2017-12-04T06:38:05.725Z,55.20
2017-12-04T06:40:33.957Z,55.20
2017-12-04T06:43:02.244Z,54.80
2017-12-04T06:45:30.480Z,54.80
2017-12-04T06:47:59.021Z,55.20
2017-12-04T06:50:28.020Z,55.20
2017-12-04T06:52:56.361Z,55.20
2017-12-04T06:55:24.695Z,55.40
2017-12-04T06:57:52.945Z,55.10
2017-12-04T07:00:21.208Z,54.60
2017-12-04T07:02:49.472Z,54.90
2017-12-04T07:05:17.727Z,55.80
2017-12-04T07:07:46.370Z,56.10
2017-12-04T07:10:14.609Z,56.10
2017-12-04T07:12:42.876Z,56.70
2017-12-04T07:15:11.148Z,56.70
2017-12-04T07:17:39.785Z,63.90
2017-12-04T07:20:08.283Z,63.90
2017-12-04T07:22:36.516Z,70.30
2017-12-04T07:25:04.768Z,61.90
2017-12-04T07:27:33.418Z,62.40
2017-12-04T07:30:01.667Z,62.20
2017-12-04T07:32:29.923Z,59.40
2017-12-04T07:34:58.164Z,59.50
2017-12-04T07:37:26.799Z,56.90
2017-12-04T07:39:55.150Z,56.90
2017-12-04T07:42:23.397Z,56.70
2017-12-04T07:44:51.633Z,57.70
2017-12-04T07:47:19.900Z,56.30
2017-12-04T07:49:48.132Z,61.00
2017-12-04T07:52:16.762Z,57.30
2017-12-04T07:54:45.031Z,57.30
2017-12-04T07:57:13.296Z,59.70
2017-12-04T07:59:41.559Z,58.60
2017-12-04T08:02:09.816Z,59.40
2017-12-04T08:04:38.456Z,59.20
2017-12-04T08:07:06.684Z,59.20
2017-12-04T08:09:35.229Z,58.20
2017-12-04T08:12:03.732Z,56.70
2017-12-04T08:14:31.970Z,57.30
2017-12-04T08:17:02.824Z,56.00
2017-12-04T08:19:31.490Z,54.80
2017-12-04T08:21:59.758Z,54.80
2017-12-04T08:24:29.416Z,54.60
2017-12-04T08:26:57.718Z,54.90
2017-12-04T08:29:25.972Z,54.80
2017-12-04T08:31:54.624Z,52.60
2017-12-04T08:34:22.864Z,52.60
2017-12-04T08:36:51.092Z,54.50
2017-12-04T08:39:19.362Z,53.90
2017-12-04T08:41:47.692Z,53.30
2017-12-04T08:44:15.964Z,53.60
2017-12-04T08:46:44.324Z,53.90
2017-12-04T08:49:12.973Z,54.10
2017-12-04T08:51:41.208Z,54.10
2017-12-04T08:54:09.461Z,54.90
2017-12-04T08:56:38.634Z,56.10
2017-12-04T08:59:07.087Z,56.00
2017-12-04T09:01:35.649Z,55.80
2017-12-04T09:04:03.897Z,54.60
2017-12-04T09:06:32.568Z,54.30
2017-12-04T09:09:01.204Z,53.80
2017-12-04T09:11:30.062Z,53.80
2017-12-04T09:13:58.320Z,54.30
2017-12-04T09:16:26.961Z,53.60
2017-12-04T09:18:55.455Z,53.60
2017-12-04T09:21:24.270Z,53.80
2017-12-04T09:23:53.047Z,54.50
2017-12-04T09:26:21.297Z,54.60
2017-12-04T09:28:49.550Z,53.90
2017-12-04T09:31:17.796Z,54.90
2017-12-04T09:33:46.453Z,55.20
2017-12-04T09:36:14.692Z,55.20
2017-12-04T09:38:42.935Z,54.30
2017-12-04T09:41:11.593Z,53.80
2017-12-04T09:43:39.854Z,53.80
2017-12-04T09:46:08.086Z,55.50
2017-12-04T09:48:36.356Z,58.20
2017-12-04T09:51:04.612Z,56.90
2017-12-04T09:53:33.248Z,61.30
2017-12-04T09:56:01.508Z,61.30
2017-12-04T09:58:29.958Z,64.60
2017-12-04T10:00:58.581Z,68.00
2017-12-04T10:03:26.850Z,68.00
2017-12-04T10:05:55.092Z,68.90
2017-12-04T10:08:23.712Z,67.60
2017-12-04T10:10:51.960Z,67.60
2017-12-04T10:13:20.187Z,64.40
2017-12-04T10:15:48.467Z,63.30
2017-12-04T10:18:16.688Z,64.20
2017-12-04T10:20:45.333Z,60.80
2017-12-04T10:23:13.586Z,60.80
2017-12-04T10:25:41.814Z,63.50
2017-12-04T10:28:10.097Z,64.60
2017-12-04T10:30:38.384Z,63.10
2017-12-04T10:33:06.622Z,62.40
2017-12-04T10:35:34.847Z,60.00
2017-12-04T10:38:03.124Z,60.60
2017-12-04T10:40:31.365Z,58.30
2017-12-04T10:42:59.927Z,57.60
2017-12-04T10:45:28.194Z,56.00
2017-12-04T10:47:58.451Z,54.80
2017-12-04T10:50:26.721Z,53.50
2017-12-04T10:52:55.472Z,51.50
2017-12-04T10:55:23.700Z,51.50
2017-12-04T10:57:51.940Z,48.30
2017-12-04T11:00:20.514Z,48.70
2017-12-04T11:02:48.785Z,45.20
2017-12-04T11:05:17.408Z,44.70
2017-12-04T11:07:45.656Z,42.70
2017-12-04T11:10:13.904Z,43.60
2017-12-04T11:12:42.172Z,44.60
2017-12-04T11:15:10.400Z,43.40
2017-12-04T11:17:39.255Z,37.90
2017-12-04T11:20:07.521Z,37.90
2017-12-04T11:22:35.767Z,38.40
2017-12-04T11:25:04.057Z,42.80
2017-12-04T11:27:32.322Z,37.90
2017-12-04T11:30:00.585Z,37.90
2017-12-04T11:32:28.833Z,40.90
2017-12-04T11:34:57.073Z,36.90
2017-12-04T11:37:25.360Z,37.60
2017-12-04T11:39:53.850Z,36.50
2017-12-04T11:42:22.108Z,35.40
2017-12-04T11:44:50.716Z,38.40
2017-12-04T11:47:18.970Z,39.40
2017-12-04T11:49:47.293Z,41.60
2017-12-04T11:52:15.496Z,36.20
2017-12-04T11:54:43.731Z,37.80
2017-12-04T11:57:12.412Z,41.60
2017-12-04T11:59:40.647Z,41.80
2017-12-04T12:02:08.898Z,39.70
2017-12-04T12:04:37.278Z,39.60
2017-12-04T12:07:05.537Z,43.00
2017-12-04T12:09:33.785Z,44.30
2017-12-04T12:12:02.141Z,45.00
2017-12-04T12:14:30.392Z,51.80
2017-12-04T12:16:58.672Z,43.40
2017-12-04T12:19:26.955Z,45.30
2017-12-04T12:21:55.209Z,46.20
2017-12-04T12:24:23.528Z,45.00
2017-12-04T12:26:51.828Z,45.20
2017-12-04T12:29:20.055Z,47.30
2017-12-04T12:31:48.300Z,46.80
2017-12-04T12:34:16.597Z,48.90
2017-12-04T12:36:44.848Z,48.90
2017-12-04T12:39:13.504Z,51.70
2017-12-04T12:41:41.767Z,51.70
2017-12-04T12:44:10.257Z,50.90
2017-12-04T12:46:38.640Z,56.90
2017-12-04T12:49:06.900Z,49.90
2017-12-04T12:51:35.160Z,48.40
2017-12-04T12:54:03.426Z,50.10
2017-12-04T12:56:31.664Z,47.40
2017-12-04T12:59:00.304Z,48.40
2017-12-04T13:01:28.590Z,48.40
2017-12-04T13:03:56.840Z,49.50
2017-12-04T13:06:25.081Z,54.90
2017-12-04T13:08:53.768Z,53.60
2017-12-04T13:11:22.097Z,53.60
2017-12-04T13:13:50.325Z,53.00
2017-12-04T13:16:18.580Z,47.80
2017-12-04T13:18:46.812Z,50.70
2017-12-04T13:21:15.065Z,54.50
2017-12-04T13:23:43.362Z,46.40
2017-12-04T13:26:11.612Z,49.20
2017-12-04T13:28:39.856Z,52.00
2017-12-04T13:31:08.124Z,53.00
2017-12-04T13:33:48.585Z,53.20
2017-12-04T13:36:28.863Z,54.10
2017-12-04T13:38:57.174Z,54.30
2017-12-04T13:41:25.876Z,55.10
2017-12-04T13:43:54.592Z,56.60
2017-12-04T13:46:22.820Z,52.40
2017-12-04T13:48:51.114Z,49.80
2017-12-04T13:51:19.459Z,47.80
2017-12-04T13:53:47.738Z,53.50
2017-12-04T13:56:16.368Z,45.00
2017-12-04T13:58:44.636Z,45.00
2017-12-04T14:01:13.144Z,45.80
2017-12-04T14:03:41.384Z,50.10
2017-12-04T14:06:09.690Z,45.20
2017-12-04T14:08:37.924Z,48.00
2017-12-04T14:11:06.180Z,49.30
2017-12-04T14:13:34.827Z,49.30
2017-12-04T14:16:03.072Z,49.30
2017-12-04T14:18:31.354Z,44.70
2017-12-04T14:20:59.594Z,47.00
2017-12-04T14:23:27.822Z,48.30
2017-12-04T14:25:56.410Z,49.50
2017-12-04T14:28:24.666Z,49.80
2017-12-04T14:30:52.945Z,52.40
2017-12-04T14:33:21.203Z,48.40
2017-12-04T14:35:49.717Z,48.70
2017-12-04T14:38:17.982Z,49.50
2017-12-04T14:40:46.231Z,53.50
2017-12-04T14:43:14.508Z,49.00
2017-12-04T14:45:42.812Z,50.80
2017-12-04T14:48:11.088Z,49.90
2017-12-04T14:50:39.325Z,51.10
2017-12-04T14:53:07.652Z,51.20
2017-12-04T14:55:35.897Z,53.50
2017-12-04T14:58:04.136Z,49.90
2017-12-04T15:00:32.810Z,49.00
2017-12-04T15:03:01.448Z,50.40
2017-12-04T15:05:29.748Z,50.40
2017-12-04T15:07:58.067Z,50.40
2017-12-04T15:10:26.355Z,51.50
2017-12-04T15:12:54.570Z,53.60
2017-12-04T15:15:22.853Z,53.80
2017-12-04T15:17:51.092Z,52.90
2017-12-04T15:20:20.043Z,54.90
2017-12-04T15:22:48.792Z,52.30
2017-12-04T15:25:17.056Z,52.30
2017-12-04T15:27:45.277Z,55.40
2017-12-04T15:30:14.244Z,53.50
2017-12-04T15:32:42.512Z,53.50
2017-12-04T15:35:11.105Z,52.90
2017-12-04T15:37:39.393Z,51.70
2017-12-04T15:40:08.004Z,53.30
2017-12-04T15:42:37.137Z,52.90
2017-12-04T15:45:05.414Z,53.60
2017-12-04T15:47:33.668Z,53.00
2017-12-04T15:50:01.912Z,52.30
2017-12-04T15:52:30.560Z,51.40
2017-12-04T15:54:58.792Z,51.40
2017-12-04T15:57:27.060Z,52.70
2017-12-04T15:59:55.693Z,48.40
2017-12-04T16:02:23.942Z,48.40
2017-12-04T16:04:52.185Z,51.70
2017-12-04T16:07:20.821Z,53.60
2017-12-04T16:09:49.836Z,53.60
2017-12-04T16:12:19.093Z,50.40
2017-12-04T16:14:47.325Z,53.20
2017-12-04T16:17:15.569Z,52.60
2017-12-04T16:19:43.849Z,54.80
2017-12-04T16:22:12.096Z,51.70
2017-12-04T16:24:40.345Z,50.20
2017-12-04T16:27:09.566Z,55.40
2017-12-04T16:29:37.788Z,55.40
2017-12-04T16:32:06.024Z,52.10
2017-12-04T16:34:34.286Z,54.30
2017-12-04T16:37:02.814Z,54.10
2017-12-04T16:39:31.044Z,54.10
2017-12-04T16:41:59.578Z,53.20
2017-12-04T16:44:27.831Z,52.10
2017-12-04T16:46:56.088Z,55.50
2017-12-04T16:49:24.474Z,52.00
2017-12-04T16:51:52.936Z,52.40
2017-12-04T16:54:21.183Z,53.90
2017-12-04T16:56:49.840Z,55.20
2017-12-04T16:59:18.252Z,55.20
2017-12-04T17:01:46.510Z,51.80
2017-12-04T17:04:14.784Z,53.00
2017-12-04T17:06:43.053Z,51.20
2017-12-04T17:09:11.308Z,50.40
2017-12-04T17:11:39.573Z,48.90
2017-12-04T17:14:08.286Z,52.90
2017-12-04T17:16:36.540Z,51.80
2017-12-04T17:19:04.825Z,51.80
2017-12-04T17:21:33.089Z,49.90
2017-12-04T17:24:01.707Z,50.40
2017-12-04T17:26:29.992Z,51.50
2017-12-04T17:28:58.700Z,52.30
2017-12-04T17:31:26.972Z,52.40
2017-12-04T17:33:57.203Z,51.50
2017-12-04T17:36:25.472Z,48.40
2017-12-04T17:38:54.163Z,51.50
2017-12-04T17:41:22.790Z,51.20
2017-12-04T17:43:51.039Z,51.20
2017-12-04T17:46:19.332Z,50.70
2017-12-04T17:48:47.597Z,50.80
2017-12-04T17:51:15.833Z,49.30
2017-12-04T17:53:44.407Z,49.60
2017-12-04T17:56:12.648Z,47.80
2017-12-04T17:58:40.934Z,48.30
2017-12-04T18:01:09.213Z,48.30
2017-12-04T18:03:37.485Z,48.30
2017-12-04T18:06:06.161Z,47.50
2017-12-04T18:08:34.428Z,47.40
2017-12-04T18:11:02.796Z,46.50
2017-12-04T18:13:31.024Z,47.80
2017-12-04T18:16:00.085Z,47.80
2017-12-04T18:18:28.683Z,48.70
2017-12-04T18:20:56.917Z,48.60
2017-12-04T18:23:25.553Z,46.40
2017-12-04T18:25:54.091Z,47.70
2017-12-04T18:28:22.439Z,47.30
2017-12-04T18:30:50.674Z,47.50
2017-12-04T18:33:18.949Z,46.70
2017-12-04T18:35:47.213Z,48.30
2017-12-04T18:38:15.480Z,48.40
2017-12-04T18:40:43.780Z,46.70
2017-12-04T18:43:12.763Z,48.00
2017-12-04T18:45:40.994Z,49.60
2017-12-04T18:48:09.650Z,49.30
2017-12-04T18:50:38.145Z,49.30
2017-12-04T18:53:06.781Z,48.70
2017-12-04T18:55:35.025Z,48.70
2017-12-04T18:58:03.274Z,49.00
2017-12-04T19:00:31.512Z,49.20
2017-12-04T19:02:59.753Z,47.00
2017-12-04T19:05:28.079Z,49.00
2017-12-04T19:07:56.316Z,49.30
2017-12-04T19:10:25.345Z,48.10
2017-12-04T19:12:53.629Z,48.90
2017-12-04T19:15:21.900Z,49.30
2017-12-04T19:17:50.157Z,48.90
2017-12-04T19:20:18.504Z,48.60
2017-12-04T19:22:46.744Z,48.10
2017-12-04T19:25:14.993Z,47.40
2017-12-04T19:27:43.276Z,46.70
2017-12-04T19:30:11.522Z,48.30
2017-12-04T19:32:39.833Z,47.70
2017-12-04T19:35:08.138Z,46.10
2017-12-04T19:37:36.499Z,48.10
2017-12-04T19:40:04.975Z,47.40
2017-12-04T19:42:33.324Z,47.80
2017-12-04T19:45:01.579Z,48.00
2017-12-04T19:47:30.502Z,48.00
2017-12-04T19:49:58.781Z,46.80
2017-12-04T19:52:27.153Z,47.40
2017-12-04T19:54:55.520Z,47.40
2017-12-04T19:57:23.773Z,46.80
2017-12-04T19:59:52.014Z,47.10
2017-12-04T20:02:20.350Z,47.10
2017-12-04T20:04:48.629Z,47.40
2017-12-04T20:07:16.948Z,47.30
2017-12-04T20:09:45.193Z,47.30
2017-12-04T20:12:13.699Z,46.50
2017-12-04T20:14:42.001Z,47.30
2017-12-04T20:17:10.641Z,47.30
2017-12-04T20:19:38.894Z,47.30
2017-12-04T20:22:07.157Z,47.30
2017-12-04T20:24:35.478Z,47.10
2017-12-04T20:27:03.747Z,46.70
2017-12-04T20:29:32.045Z,47.00
2017-12-04T20:32:00.398Z,46.80
2017-12-04T20:34:28.749Z,46.80
2017-12-04T20:36:57.133Z,46.80
2017-12-04T20:39:25.393Z,47.00
2017-12-04T20:41:53.720Z,47.30
2017-12-04T20:44:22.843Z,47.30
2017-12-04T20:46:51.591Z,47.10
2017-12-04T20:49:19.988Z,47.10
2017-12-04T20:51:48.350Z,47.00
2017-12-04T20:54:17.123Z,47.30
2017-12-04T20:56:45.446Z,47.30
2017-12-04T20:59:13.781Z,47.10
2017-12-04T21:01:42.031Z,47.80
2017-12-04T21:04:10.869Z,47.70
2017-12-04T21:06:39.558Z,47.30
2017-12-04T21:09:19.616Z,47.10
2017-12-04T21:11:47.892Z,47.30
2017-12-04T21:14:28.159Z,61.30
2017-12-04T21:17:08.489Z,56.90
2017-12-04T21:19:36.791Z,51.80
2017-12-04T21:22:05.460Z,56.90
2017-12-04T21:24:33.833Z,57.00
2017-12-04T21:27:02.156Z,57.00
2017-12-04T21:29:30.563Z,58.20
2017-12-04T21:31:59.328Z,54.20
2017-12-04T21:34:27.606Z,54.20
2017-12-04T21:36:55.942Z,52.30
2017-12-04T21:39:24.648Z,47.40
2017-12-04T21:41:53.076Z,47.40
2017-12-04T21:44:21.375Z,57.30
2017-12-04T21:46:49.746Z,58.20
2017-12-04T21:49:18.027Z,49.90
2017-12-04T21:51:46.403Z,45.60
2017-12-04T21:54:14.813Z,47.00
2017-12-04T21:56:43.459Z,51.70
2017-12-04T21:59:11.745Z,51.70
2017-12-04T22:01:40.190Z,49.90
2017-12-04T22:04:08.481Z,48.70
2017-12-04T22:06:36.753Z,49.30
2017-12-04T22:09:05.151Z,50.80
2017-12-04T22:11:33.559Z,46.10
2017-12-04T22:14:02.232Z,49.50
2017-12-04T22:16:30.670Z,49.50
2017-12-04T22:18:59.179Z,47.30
2017-12-04T22:21:28.396Z,44.90
2017-12-04T22:23:56.688Z,44.90
2017-12-04T22:26:25.560Z,50.50
2017-12-04T22:28:54.056Z,50.70
2017-12-04T22:31:23.079Z,50.40
2017-12-04T22:33:51.452Z,50.50
2017-12-04T22:36:20.061Z,48.40
2017-12-04T22:38:48.319Z,48.40
2017-12-04T22:41:16.561Z,54.10
2017-12-04T22:43:45.210Z,64.00
2017-12-04T22:46:13.512Z,64.20
2017-12-04T22:48:41.768Z,55.40
2017-12-04T22:51:10.012Z,49.60
2017-12-04T22:53:38.274Z,44.30
2017-12-04T22:56:06.523Z,48.60
2017-12-04T22:58:35.164Z,55.10
2017-12-04T23:01:03.956Z,54.90
2017-12-04T23:03:33.172Z,43.60
2017-12-04T23:06:01.414Z,50.10
2017-12-04T23:08:29.693Z,50.50
2017-12-04T23:10:57.944Z,55.10
2017-12-04T23:13:26.206Z,47.50
2017-12-04T23:15:54.908Z,54.90
2017-12-04T23:18:23.185Z,54.90
2017-12-04T23:20:51.448Z,46.70
2017-12-04T23:23:20.072Z,47.80
2017-12-04T23:25:48.308Z,47.80
2017-12-04T23:28:16.559Z,51.20
2017-12-04T23:30:44.827Z,53.00
2017-12-04T23:33:13.123Z,47.80
2017-12-04T23:35:41.506Z,55.50
2017-12-04T23:38:10.271Z,54.10
2017-12-04T23:40:38.571Z,52.00
2017-12-04T23:43:06.863Z,50.90
2017-12-04T23:45:35.103Z,45.00
2017-12-04T23:48:03.984Z,49.60
2017-12-04T23:50:32.261Z,49.60
2017-12-04T23:53:00.508Z,49.90
2017-12-04T23:55:28.752Z,47.80
2017-12-04T23:57:57.028Z,49.80
